Decoded Metar for VOBM ( in ) (IATA:) | Meteo·Mobile Aviation Weather
aviador You're here:

VOBM Decoded Metar

in
Report Time2019-05-22 07:00:00
UTC Time2019-05-22 07:22:12
Flight Rules vfr VFR
Wind250° at 06 kt
W.Decomp.*RWY 26: 5.9 kt HW 1 kt LCW
Visibility9999 m
Phenomena:Sand
Clouds:N/A
Expected CloudBase > 8,400 ft AGL from Temp-Dew spread
CeilingNone
Temp36°C
Dew Point15°C (28% RH)
Heat Index35.7°C
AAT35.3°C
QNH1013 hPa
Raw Report
METAR VOBM 220700Z 25006KT CAVOK 36/15 Q1013=####018000560####
SACN94 CWAO 220700 RRA
WQC SA 0700 AUTO8 M M M 125/11/10/3202/M/ 1024 16MM=

Extra information for VOBM:More info

Social comments